createdAt,value
2017-10-07T00:00:38.284Z,99.99
2017-10-07T00:02:01.531Z,99.99
2017-10-07T00:03:02.373Z,99.99
2017-10-07T00:04:25.455Z,99.99
2017-10-07T00:05:26.497Z,99.99
2017-10-07T00:07:33.484Z,99.99
2017-10-07T00:08:34.156Z,99.99
2017-10-07T00:10:18.616Z,99.99
2017-10-07T00:12:04.588Z,99.99
2017-10-07T00:13:05.324Z,99.99
2017-10-07T00:14:05.057Z,99.99
2017-10-07T00:15:27.592Z,99.99
2017-10-07T00:17:36.450Z,99.99
2017-10-07T00:19:44.660Z,99.99
2017-10-07T00:20:45.352Z,99.99
2017-10-07T00:22:30.667Z,99.99
2017-10-07T00:23:31.368Z,99.99
2017-10-07T00:24:53.531Z,99.99
2017-10-07T00:25:54.271Z,99.99
2017-10-07T00:28:01.150Z,99.99
2017-10-07T00:29:25.317Z,99.99
2017-10-07T00:31:12.340Z,99.99
2017-10-07T00:32:12.004Z,99.99
2017-10-07T00:33:35.272Z,99.99
2017-10-07T00:34:35.708Z,99.99
2017-10-07T00:35:35.311Z,99.99
2017-10-07T00:37:21.656Z,99.99
2017-10-07T00:38:22.000Z,99.99
2017-10-07T00:39:21.410Z,99.99
2017-10-07T00:41:51.781Z,99.99
2017-10-07T00:42:52.514Z,99.99
2017-10-07T00:43:52.944Z,99.99
2017-10-07T00:45:37.521Z,99.99
2017-10-07T00:48:10.340Z,99.99
2017-10-07T00:49:10.982Z,99.99
2017-10-07T00:50:10.225Z,99.99
2017-10-07T00:51:10.315Z,99.99
2017-10-07T00:52:34.640Z,99.99
2017-10-07T00:53:35.169Z,99.99
2017-10-07T00:54:34.642Z,99.99
2017-10-07T00:55:57.241Z,99.99
2017-10-07T00:56:57.815Z,99.99
2017-10-07T00:58:22.436Z,99.99
2017-10-07T00:59:21.406Z,99.99
2017-10-07T01:00:44.329Z,99.99
2017-10-07T01:01:44.778Z,99.99
2017-10-07T01:03:08.731Z,99.99
2017-10-07T01:04:53.583Z,99.99
2017-10-07T01:05:53.786Z,99.99
2017-10-07T01:08:02.060Z,99.99
2017-10-07T01:09:05.177Z,99.99
2017-10-07T01:10:03.123Z,99.99
2017-10-07T01:11:48.475Z,99.99
2017-10-07T01:12:49.368Z,99.99
2017-10-07T01:13:48.840Z,99.99
2017-10-07T01:14:48.906Z,99.99
2017-10-07T01:15:48.292Z,99.99
2017-10-07T01:16:49.033Z,99.99
2017-10-07T01:17:48.710Z,99.99
2017-10-07T01:18:49.366Z,99.99
2017-10-07T01:20:11.288Z,99.99
2017-10-07T01:21:12.128Z,99.99
2017-10-07T01:22:34.572Z,99.99
2017-10-07T01:23:35.264Z,99.99
2017-10-07T01:24:35.710Z,99.99
2017-10-07T01:25:57.775Z,99.99
2017-10-07T01:27:20.672Z,99.99
2017-10-07T01:28:43.694Z,99.99
2017-10-07T01:30:07.298Z,99.99
2017-10-07T01:31:09.283Z,99.99
2017-10-07T01:32:07.728Z,99.99
2017-10-07T01:33:07.402Z,99.99
2017-10-07T01:34:55.116Z,99.99
2017-10-07T01:37:03.456Z,99.99
2017-10-07T01:38:04.091Z,99.99
2017-10-07T01:40:56.236Z,99.99
2017-10-07T01:42:42.836Z,99.99
2017-10-07T01:43:43.855Z,99.99
2017-10-07T01:45:28.374Z,99.99
2017-10-07T01:46:52.385Z,99.99
2017-10-07T01:47:54.975Z,99.99
2017-10-07T01:49:15.050Z,99.99
2017-10-07T01:50:15.242Z,99.99
2017-10-07T01:51:15.720Z,99.99
2017-10-07T01:52:37.922Z,99.99
2017-10-07T01:53:38.676Z,99.99
2017-10-07T01:54:38.119Z,99.99
2017-10-07T01:57:08.351Z,99.99
2017-10-07T01:58:09.021Z,99.99
2017-10-07T01:59:10.024Z,99.99
2017-10-07T02:00:31.881Z,99.99
2017-10-07T02:01:32.604Z,99.99
2017-10-07T02:02:54.462Z,99.99
2017-10-07T02:03:55.950Z,99.99
2017-10-07T02:04:55.679Z,99.99
2017-10-07T02:05:54.895Z,99.99
2017-10-07T02:06:55.347Z,99.99
2017-10-07T02:07:55.214Z,99.99
2017-10-07T02:09:17.608Z,99.99
2017-10-07T02:11:04.348Z,99.99
2017-10-07T02:12:27.143Z,99.99
2017-10-07T02:13:27.864Z,99.99
2017-10-07T02:14:26.876Z,99.99
2017-10-07T02:15:29.594Z,99.99
2017-10-07T02:16:27.396Z,99.99
2017-10-07T02:17:49.990Z,99.99
2017-10-07T02:18:50.230Z,99.98
2017-10-07T02:19:50.935Z,99.99
2017-10-07T02:20:50.366Z,99.99
2017-10-07T02:21:50.609Z,99.99
2017-10-07T02:22:49.687Z,99.99
2017-10-07T02:23:50.109Z,99.99
2017-10-07T02:24:50.407Z,99.99
2017-10-07T02:25:51.365Z,99.99
2017-10-07T02:27:57.936Z,99.99
2017-10-07T02:28:58.096Z,99.99
2017-10-07T02:30:43.496Z,99.99
2017-10-07T02:31:43.670Z,99.99
2017-10-07T02:33:06.640Z,99.99
2017-10-07T02:34:07.431Z,99.99
2017-10-07T02:35:06.424Z,99.99
2017-10-07T02:36:29.212Z,99.99
2017-10-07T02:37:30.371Z,99.99
2017-10-07T02:38:52.181Z,99.99
2017-10-07T02:39:53.762Z,99.99
2017-10-07T02:40:53.532Z,99.99
2017-10-07T02:41:52.650Z,99.99
2017-10-07T02:42:53.619Z,99.99
2017-10-07T02:43:52.824Z,99.99
2017-10-07T02:44:52.946Z,99.99
2017-10-07T02:46:15.403Z,99.99
2017-10-07T02:47:15.873Z,99.99
2017-10-07T02:48:39.333Z,99.99
2017-10-07T02:49:39.485Z,99.99
2017-10-07T02:50:39.847Z,99.99
2017-10-07T02:52:24.759Z,99.99
2017-10-07T02:53:49.635Z,99.99
2017-10-07T02:55:12.607Z,99.99
2017-10-07T02:56:57.720Z,99.99
2017-10-07T02:57:58.012Z,99.99
2017-10-07T02:58:58.508Z,99.99
2017-10-07T02:59:57.713Z,99.99
2017-10-07T03:00:58.178Z,99.99
2017-10-07T03:02:20.591Z,99.99
2017-10-07T03:03:21.194Z,99.99
2017-10-07T03:04:44.174Z,99.99
2017-10-07T03:05:44.734Z,99.99
2017-10-07T03:06:44.178Z,99.99
2017-10-07T03:08:29.725Z,99.99
2017-10-07T03:09:31.639Z,99.99
2017-10-07T03:11:16.140Z,99.99
2017-10-07T03:12:39.924Z,99.99
2017-10-07T03:13:40.293Z,99.99
2017-10-07T03:14:41.685Z,99.99
2017-10-07T03:15:39.964Z,99.99
2017-10-07T03:16:40.003Z,99.99
2017-10-07T03:17:40.510Z,99.99
2017-10-07T03:19:03.250Z,99.99
2017-10-07T03:20:26.393Z,99.99
2017-10-07T03:21:27.060Z,99.99
2017-10-07T03:22:26.183Z,99.99
2017-10-07T03:23:26.898Z,99.99
2017-10-07T03:24:26.205Z,99.99
2017-10-07T03:25:49.671Z,99.99
2017-10-07T03:26:50.328Z,99.99
2017-10-07T03:27:50.057Z,99.99
2017-10-07T03:28:50.521Z,99.99
2017-10-07T03:30:12.398Z,99.99
2017-10-07T03:31:13.188Z,99.99
2017-10-07T03:32:13.020Z,99.99
2017-10-07T03:33:12.326Z,99.99
2017-10-07T03:34:12.749Z,99.99
2017-10-07T03:35:12.896Z,99.99
2017-10-07T03:36:13.982Z,99.99
2017-10-07T03:37:12.221Z,99.99
2017-10-07T03:38:37.070Z,99.99
2017-10-07T03:40:22.872Z,99.99
2017-10-07T03:41:25.282Z,99.99
2017-10-07T03:42:22.938Z,99.99
2017-10-07T03:44:07.794Z,99.99
2017-10-07T03:45:08.466Z,99.99
2017-10-07T03:46:08.540Z,99.99
2017-10-07T03:47:31.101Z,99.99
2017-10-07T03:48:54.270Z,99.99
2017-10-07T03:49:54.735Z,99.99
2017-10-07T03:50:55.235Z,99.99
2017-10-07T03:52:20.069Z,99.99
2017-10-07T03:53:18.619Z,99.99
2017-10-07T03:54:41.245Z,99.99
2017-10-07T03:55:41.316Z,99.99
2017-10-07T03:57:04.654Z,99.99
2017-10-07T03:58:50.220Z,99.99
2017-10-07T03:59:51.442Z,99.99
2017-10-07T04:00:51.018Z,99.99
2017-10-07T04:01:51.506Z,99.99
2017-10-07T04:02:51.125Z,99.99
2017-10-07T04:03:50.735Z,99.99
2017-10-07T04:05:13.546Z,99.99
2017-10-07T04:06:14.827Z,99.99
2017-10-07T04:07:37.100Z,99.99
2017-10-07T04:08:37.142Z,99.99
2017-10-07T04:09:37.716Z,99.99
2017-10-07T04:11:23.333Z,99.99
2017-10-07T04:12:24.121Z,99.99
2017-10-07T04:13:45.860Z,99.99
2017-10-07T04:15:09.496Z,99.99
2017-10-07T04:16:10.825Z,99.99
2017-10-07T04:17:10.378Z,99.99
2017-10-07T04:18:09.892Z,99.99
2017-10-07T04:19:56.339Z,99.99
2017-10-07T04:21:17.219Z,99.99
2017-10-07T04:22:17.703Z,99.99
2017-10-07T04:23:40.034Z,99.99
2017-10-07T04:24:40.655Z,99.99
2017-10-07T04:25:40.518Z,99.99
2017-10-07T04:27:02.609Z,99.99
2017-10-07T04:28:25.176Z,99.99
2017-10-07T04:29:48.498Z,99.99
2017-10-07T04:30:48.998Z,99.99
2017-10-07T04:32:55.521Z,99.99
2017-10-07T04:33:55.760Z,99.99
2017-10-07T04:35:18.734Z,99.93
2017-10-07T04:36:19.659Z,99.93
2017-10-07T04:37:19.426Z,99.93
2017-10-07T04:38:18.847Z,99.93
2017-10-07T04:39:19.847Z,99.99
2017-10-07T04:42:12.111Z,99.99
2017-10-07T04:43:12.518Z,99.99
2017-10-07T04:44:12.138Z,99.99
2017-10-07T04:45:12.997Z,99.99
2017-10-07T04:46:12.316Z,99.99
2017-10-07T04:47:13.326Z,99.99
2017-10-07T04:48:12.551Z,99.99
2017-10-07T04:49:13.276Z,99.99
2017-10-07T04:50:12.808Z,99.99
2017-10-07T04:52:20.090Z,99.99
2017-10-07T04:53:20.657Z,99.99
2017-10-07T04:54:42.365Z,99.99
2017-10-07T04:56:04.822Z,99.99
2017-10-07T04:57:05.080Z,99.99
2017-10-07T04:58:28.827Z,99.99
2017-10-07T04:59:29.296Z,99.99
2017-10-07T05:00:28.978Z,99.99
2017-10-07T05:01:29.476Z,99.99
2017-10-07T05:03:59.167Z,99.99
2017-10-07T05:05:22.092Z,99.99
2017-10-07T05:06:44.773Z,99.99
2017-10-07T05:08:53.650Z,99.99
2017-10-07T05:09:53.796Z,99.99
2017-10-07T05:11:17.054Z,99.99
2017-10-07T05:13:01.833Z,99.99
2017-10-07T05:14:02.701Z,99.99
2017-10-07T05:15:01.787Z,99.99
2017-10-07T05:17:09.418Z,99.98
2017-10-07T05:18:09.440Z,99.98
2017-10-07T05:19:10.199Z,99.99
2017-10-07T05:20:09.525Z,99.99
2017-10-07T05:21:10.450Z,99.99
2017-10-07T05:22:09.673Z,99.99
2017-10-07T05:23:09.962Z,99.88
2017-10-07T05:24:55.650Z,99.69
2017-10-07T05:27:47.358Z,98.93
2017-10-07T05:28:47.947Z,99.02
2017-10-07T05:30:11.020Z,98.93
2017-10-07T05:31:33.799Z,98.93
2017-10-07T05:32:34.052Z,98.83
2017-10-07T05:33:56.713Z,98.83
2017-10-07T05:35:43.450Z,98.74
2017-10-07T05:36:43.741Z,98.65
2017-10-07T05:37:44.469Z,98.65
2017-10-07T05:38:44.101Z,98.46
2017-10-07T05:39:43.945Z,98.46
2017-10-07T05:41:06.104Z,98.27
2017-10-07T05:42:29.510Z,98.17
2017-10-07T05:43:52.545Z,97.98
2017-10-07T05:45:15.217Z,97.98
2017-10-07T05:46:16.110Z,97.88
2017-10-07T05:47:38.527Z,98.08
2017-10-07T05:48:39.307Z,98.27
2017-10-07T05:49:38.449Z,98.27
2017-10-07T05:50:39.076Z,98.27
2017-10-07T05:52:01.100Z,98.08
2017-10-07T05:53:01.360Z,97.98
2017-10-07T05:54:01.933Z,97.79
2017-10-07T05:55:01.275Z,97.69
2017-10-07T05:56:24.656Z,97.50
2017-10-07T05:58:09.966Z,97.50
2017-10-07T05:59:10.587Z,97.50
2017-10-07T06:00:10.237Z,97.50
2017-10-07T06:01:33.283Z,97.50
2017-10-07T06:02:33.741Z,97.31
2017-10-07T06:03:56.344Z,97.31
2017-10-07T06:04:57.004Z,97.41
2017-10-07T06:05:56.791Z,97.50
2017-10-07T06:06:58.199Z,97.22
2017-10-07T06:08:19.573Z,97.03
2017-10-07T06:09:43.539Z,97.13
2017-10-07T06:11:29.182Z,97.03
2017-10-07T06:12:29.781Z,97.13
2017-10-07T06:13:30.511Z,97.31
2017-10-07T06:14:29.301Z,97.08
2017-10-07T06:15:52.157Z,96.79
2017-10-07T06:16:52.750Z,96.60
2017-10-07T06:17:53.314Z,96.60
2017-10-07T06:18:52.538Z,96.70
2017-10-07T06:20:15.739Z,96.41
2017-10-07T06:22:01.102Z,96.60
2017-10-07T06:23:01.853Z,96.51
2017-10-07T06:24:01.403Z,96.31
2017-10-07T06:25:24.596Z,96.22
2017-10-07T06:26:25.119Z,95.65
2017-10-07T06:27:24.988Z,95.75
2017-10-07T06:28:25.047Z,95.56
2017-10-07T06:29:47.602Z,95.36
2017-10-07T06:31:11.052Z,95.27
2017-10-07T06:32:11.296Z,95.27
2017-10-07T06:33:57.208Z,94.60
2017-10-07T06:34:56.844Z,94.60
2017-10-07T06:35:58.118Z,94.79
2017-10-07T06:37:19.763Z,94.70
2017-10-07T06:39:50.162Z,94.22
2017-10-07T06:40:50.851Z,94.32
2017-10-07T06:43:43.624Z,94.70
2017-10-07T06:44:43.882Z,94.42
2017-10-07T06:46:06.894Z,94.32
2017-10-07T06:47:29.924Z,94.22
2017-10-07T06:48:30.867Z,94.32
2017-10-07T06:49:30.790Z,94.22
2017-10-07T06:50:34.593Z,94.03
2017-10-07T06:51:54.641Z,93.55
2017-10-07T06:53:17.305Z,93.41
2017-10-07T06:54:41.076Z,93.13
2017-10-07T06:55:41.657Z,92.94
2017-10-07T06:57:49.062Z,91.79
2017-10-07T06:58:49.638Z,91.79
2017-10-07T06:59:49.307Z,91.51
2017-10-07T07:00:48.758Z,91.41
2017-10-07T07:02:12.867Z,91.22
2017-10-07T07:03:35.624Z,91.41
2017-10-07T07:04:58.743Z,91.51
2017-10-07T07:05:59.753Z,91.51
2017-10-07T07:06:59.408Z,91.70
2017-10-07T07:07:58.708Z,91.41
2017-10-07T07:09:21.903Z,91.51
2017-10-07T07:10:22.233Z,91.70
2017-10-07T07:11:21.603Z,91.79
2017-10-07T07:12:23.054Z,91.41
2017-10-07T07:14:07.384Z,90.84
2017-10-07T07:15:53.607Z,90.84
2017-10-07T07:17:16.347Z,91.22
2017-10-07T07:18:39.867Z,90.65
2017-10-07T07:19:40.144Z,91.03
2017-10-07T07:21:03.486Z,90.94
2017-10-07T07:22:04.104Z,90.56
2017-10-07T07:23:03.695Z,90.36
2017-10-07T07:24:03.292Z,90.36
2017-10-07T07:25:03.729Z,90.17
2017-10-07T07:27:11.424Z,90.08
2017-10-07T07:28:12.015Z,90.36
2017-10-07T07:29:56.990Z,90.17
2017-10-07T07:30:57.442Z,89.98
2017-10-07T07:31:58.114Z,90.03
2017-10-07T07:32:57.847Z,89.61
2017-10-07T07:34:21.383Z,89.84
2017-10-07T07:36:05.964Z,89.75
2017-10-07T07:37:50.582Z,89.84
2017-10-07T07:38:51.111Z,90.03
2017-10-07T07:39:50.968Z,90.31
2017-10-07T07:40:50.767Z,90.17
2017-10-07T07:41:51.479Z,90.75
2017-10-07T07:43:13.710Z,90.94
2017-10-07T07:44:14.625Z,91.51
2017-10-07T07:45:14.773Z,91.41
2017-10-07T07:46:14.346Z,90.94
2017-10-07T07:47:14.607Z,91.03
2017-10-07T07:48:14.098Z,90.84
2017-10-07T07:49:14.070Z,90.84
2017-10-07T07:50:38.311Z,90.27
2017-10-07T07:51:59.535Z,91.41
2017-10-07T07:53:00.405Z,91.46
2017-10-07T07:54:22.547Z,91.36
2017-10-07T07:55:23.844Z,90.98
2017-10-07T07:57:31.765Z,90.70
2017-10-07T07:58:31.324Z,90.41
2017-10-07T07:59:31.978Z,90.41
2017-10-07T08:00:31.890Z,90.41
2017-10-07T08:01:32.005Z,90.70
2017-10-07T08:05:32.927Z,88.70
2017-10-07T08:06:56.556Z,89.26
2017-10-07T08:07:57.133Z,89.22
2017-10-07T08:09:42.226Z,88.17
2017-10-07T08:11:04.166Z,87.88
2017-10-07T08:12:05.485Z,86.74
2017-10-07T08:13:04.865Z,86.16
2017-10-07T08:14:04.491Z,86.16
2017-10-07T08:15:28.073Z,84.78
2017-10-07T08:17:38.151Z,84.40
2017-10-07T08:18:38.793Z,83.92
2017-10-07T08:20:01.296Z,83.73
2017-10-07T08:21:02.077Z,83.35
2017-10-07T08:23:54.930Z,84.30
2017-10-07T08:25:18.173Z,84.49
2017-10-07T08:26:18.956Z,84.40
2017-10-07T08:27:18.703Z,84.49
2017-10-07T08:28:18.523Z,84.78
2017-10-07T08:29:18.758Z,84.40
2017-10-07T08:30:18.561Z,84.49
2017-10-07T08:31:41.785Z,85.06
2017-10-07T08:33:04.864Z,84.78
2017-10-07T08:34:50.566Z,85.25
2017-10-07T08:35:50.952Z,84.88
2017-10-07T08:36:50.664Z,85.35
2017-10-07T08:37:51.021Z,85.54
2017-10-07T08:38:50.604Z,85.64
2017-10-07T08:39:52.715Z,85.45
2017-10-07T08:41:13.484Z,85.88
2017-10-07T08:42:58.883Z,85.88
2017-10-07T08:44:25.201Z,86.21
2017-10-07T08:45:49.180Z,85.93
2017-10-07T08:46:49.939Z,85.64
2017-10-07T08:48:12.081Z,84.97
2017-10-07T08:49:12.114Z,84.49
2017-10-07T08:50:12.821Z,84.01
2017-10-07T08:51:35.984Z,83.58
2017-10-07T08:52:37.089Z,82.43
2017-10-07T08:55:29.412Z,82.15
2017-10-07T08:57:15.150Z,81.96
2017-10-07T08:58:15.964Z,82.82
2017-10-07T08:59:15.887Z,82.24
2017-10-07T09:00:14.893Z,82.53
2017-10-07T09:01:38.181Z,82.82
2017-10-07T09:02:38.649Z,83.20
2017-10-07T09:03:38.736Z,82.30
2017-10-07T09:04:39.075Z,82.30
2017-10-07T09:06:02.424Z,82.59
2017-10-07T09:07:26.069Z,83.25
2017-10-07T09:08:48.906Z,84.59
2017-10-07T09:10:12.788Z,85.93
2017-10-07T09:11:13.488Z,87.26
2017-10-07T09:12:13.907Z,87.98
2017-10-07T09:13:12.311Z,88.26
2017-10-07T09:14:57.957Z,88.84
2017-10-07T09:15:59.084Z,89.89
2017-10-07T09:18:51.963Z,90.26
2017-10-07T09:19:52.971Z,90.55
2017-10-07T09:22:01.363Z,89.89
2017-10-07T09:23:02.206Z,90.26
2017-10-07T09:24:24.574Z,91.22
2017-10-07T09:26:15.665Z,90.74
2017-10-07T09:28:00.552Z,90.74
2017-10-07T09:29:26.147Z,90.55
2017-10-07T09:30:49.438Z,91.79
2017-10-07T09:31:50.142Z,91.50
2017-10-07T09:33:12.088Z,92.32
2017-10-07T09:34:12.745Z,93.17
2017-10-07T09:35:12.669Z,93.17
2017-10-07T09:36:12.407Z,93.93
2017-10-07T09:37:12.324Z,93.55
2017-10-07T09:38:58.716Z,93.84
2017-10-07T09:40:00.970Z,93.65
2017-10-07T09:40:58.885Z,94.22
2017-10-07T09:41:59.638Z,94.13
2017-10-07T09:44:08.499Z,93.98
2017-10-07T09:47:50.078Z,95.22
2017-10-07T09:49:13.307Z,95.79
2017-10-07T09:50:14.532Z,96.27
2017-10-07T09:51:36.291Z,95.51
2017-10-07T09:52:36.960Z,95.51
2017-10-07T09:53:36.839Z,95.51
2017-10-07T09:55:22.143Z,96.75
2017-10-07T09:56:44.540Z,96.75
2017-10-07T09:57:44.446Z,97.22
2017-10-07T09:58:45.506Z,97.31
2017-10-07T10:01:39.031Z,95.32
2017-10-07T10:02:39.167Z,95.60
2017-10-07T10:03:39.228Z,95.32
2017-10-07T10:04:40.363Z,95.22
2017-10-07T10:05:39.415Z,95.70
2017-10-07T10:06:39.357Z,95.98
2017-10-07T10:07:39.247Z,95.89
2017-10-07T10:08:39.113Z,95.84
2017-10-07T10:09:39.460Z,95.08
2017-10-07T10:11:02.750Z,95.36
2017-10-07T10:12:24.402Z,95.94
2017-10-07T10:14:10.183Z,95.94
2017-10-07T10:15:56.520Z,94.89
2017-10-07T10:17:43.981Z,95.08
2017-10-07T10:19:07.246Z,95.27
2017-10-07T10:21:14.841Z,95.94
2017-10-07T10:22:17.033Z,95.94
2017-10-07T10:24:00.516Z,95.75
2017-10-07T10:25:23.244Z,94.98
2017-10-07T10:26:45.284Z,95.75
2017-10-07T10:27:46.827Z,95.56
2017-10-07T10:28:45.738Z,95.65
2017-10-07T10:29:46.201Z,95.75
2017-10-07T10:31:55.765Z,96.03
2017-10-07T10:33:19.700Z,96.32
2017-10-07T10:34:42.921Z,96.60
2017-10-07T10:35:43.232Z,97.08
2017-10-07T10:37:05.720Z,97.17
2017-10-07T10:38:30.565Z,97.60
2017-10-07T10:39:29.347Z,97.60
2017-10-07T10:40:29.896Z,98.18
2017-10-07T10:41:30.853Z,98.74
2017-10-07T10:42:30.463Z,98.94
2017-10-07T10:44:15.203Z,98.94
2017-10-07T10:45:15.025Z,98.55
2017-10-07T10:46:38.187Z,98.84
2017-10-07T10:47:47.381Z,98.84
2017-10-07T10:48:38.672Z,99.13
2017-10-07T10:49:59.784Z,99.51
2017-10-07T10:51:00.607Z,99.69
2017-10-07T10:52:00.476Z,99.51
2017-10-07T10:53:00.205Z,99.69
2017-10-07T10:54:23.198Z,99.99
2017-10-07T10:55:23.799Z,99.99
2017-10-07T10:57:31.500Z,99.99
2017-10-07T10:59:39.781Z,99.99
2017-10-07T11:01:02.652Z,99.99
2017-10-07T11:02:03.201Z,99.99
2017-10-07T11:04:33.778Z,99.99
2017-10-07T11:06:18.819Z,99.99
2017-10-07T11:07:42.210Z,99.99
2017-10-07T11:09:05.596Z,99.99
2017-10-07T11:10:05.638Z,99.99
2017-10-07T11:11:05.851Z,99.99
2017-10-07T11:12:05.956Z,99.99
2017-10-07T11:13:07.982Z,99.99
2017-10-07T11:14:06.304Z,99.99
2017-10-07T11:15:30.173Z,99.99
2017-10-07T11:16:52.565Z,99.99
2017-10-07T11:17:53.453Z,99.99
2017-10-07T11:18:53.981Z,99.99
2017-10-07T11:19:52.867Z,99.99
2017-10-07T11:20:53.128Z,99.99
2017-10-07T11:21:53.733Z,99.99
2017-10-07T11:22:53.084Z,99.99
2017-10-07T11:23:53.037Z,99.99
2017-10-07T11:24:53.198Z,99.99
2017-10-07T11:26:15.976Z,99.99
2017-10-07T11:28:03.063Z,99.99
2017-10-07T11:29:05.019Z,99.99
2017-10-07T11:30:26.654Z,99.99
2017-10-07T11:31:26.947Z,99.99
2017-10-07T11:33:12.782Z,99.99
2017-10-07T11:34:57.445Z,99.99
2017-10-07T11:35:58.534Z,99.99
2017-10-07T11:38:06.545Z,99.99
2017-10-07T11:40:17.654Z,99.99
2017-10-07T11:40:48.377Z,99.99
2017-10-07T11:41:30.730Z,99.99
2017-10-07T11:42:31.492Z,99.99
2017-10-07T11:43:53.609Z,99.99
2017-10-07T11:44:55.488Z,99.99
2017-10-07T11:45:54.410Z,99.99
2017-10-07T11:46:54.494Z,99.99
2017-10-07T11:47:54.857Z,99.99
2017-10-07T11:49:16.589Z,99.99
2017-10-07T11:50:39.847Z,99.99
2017-10-07T11:52:02.069Z,99.99
2017-10-07T11:53:03.040Z,99.99
2017-10-07T11:54:50.945Z,99.99
2017-10-07T11:56:14.072Z,99.99
2017-10-07T11:57:15.004Z,99.99
2017-10-07T11:58:14.778Z,99.99
2017-10-07T11:59:14.935Z,99.99
2017-10-07T12:00:15.656Z,99.99
2017-10-07T12:03:11.825Z,99.99
2017-10-07T12:04:12.699Z,99.99
2017-10-07T12:05:13.570Z,99.99
2017-10-07T12:06:12.378Z,99.99
2017-10-07T12:07:59.399Z,99.99
2017-10-07T12:09:45.698Z,99.99
2017-10-07T12:11:08.822Z,99.99
2017-10-07T12:13:42.777Z,99.99
2017-10-07T12:14:43.238Z,99.99
2017-10-07T12:15:42.012Z,99.99
2017-10-07T12:17:05.450Z,99.99
2017-10-07T12:18:28.691Z,99.99
2017-10-07T12:21:23.704Z,99.99
2017-10-07T12:22:24.127Z,99.99
2017-10-07T12:23:24.009Z,99.99
2017-10-07T12:25:08.388Z,99.99
2017-10-07T12:26:09.211Z,99.99
2017-10-07T12:27:31.250Z,99.99
2017-10-07T12:28:33.991Z,99.99
2017-10-07T12:29:32.323Z,99.99
2017-10-07T12:30:33.332Z,99.99
2017-10-07T12:31:30.871Z,99.99
2017-10-07T12:32:54.253Z,99.99
2017-10-07T12:33:55.115Z,99.99
2017-10-07T12:34:54.027Z,99.99
2017-10-07T12:35:57.138Z,99.99
2017-10-07T12:37:40.736Z,99.99
2017-10-07T12:39:48.088Z,99.99
2017-10-07T12:41:11.177Z,99.99
2017-10-07T12:43:18.919Z,99.99
2017-10-07T12:44:19.624Z,99.99
2017-10-07T12:46:49.895Z,99.99
2017-10-07T12:47:50.417Z,99.99
2017-10-07T12:48:50.219Z,99.99
2017-10-07T12:53:12.085Z,99.99
2017-10-07T12:54:12.567Z,99.99
2017-10-07T12:55:13.332Z,99.99
2017-10-07T12:56:12.097Z,99.99
2017-10-07T12:57:14.030Z,99.99
2017-10-07T12:58:35.084Z,99.99
2017-10-07T12:59:35.463Z,99.99
2017-10-07T13:00:57.969Z,99.99
2017-10-07T13:01:58.828Z,99.99
2017-10-07T13:03:21.136Z,99.99
2017-10-07T13:04:22.238Z,99.99
2017-10-07T13:05:44.526Z,99.99
2017-10-07T13:06:45.345Z,99.99
2017-10-07T13:07:45.587Z,99.99
2017-10-07T13:08:45.050Z,99.99
2017-10-07T13:10:51.724Z,99.99
2017-10-07T13:11:51.465Z,99.99
2017-10-07T13:13:15.330Z,99.99
2017-10-07T13:14:15.524Z,99.99
2017-10-07T13:15:15.263Z,99.99
2017-10-07T13:16:15.861Z,99.99
2017-10-07T13:17:15.393Z,99.99
2017-10-07T13:19:24.040Z,99.99
2017-10-07T13:20:22.915Z,99.99
2017-10-07T13:21:22.633Z,99.99
2017-10-07T13:22:22.583Z,99.99
2017-10-07T13:24:30.957Z,99.99
2017-10-07T13:26:17.060Z,99.99
2017-10-07T13:27:16.721Z,99.99
2017-10-07T13:28:16.207Z,99.99
2017-10-07T13:29:16.665Z,99.99
2017-10-07T13:30:17.111Z,99.99
2017-10-07T13:32:02.331Z,99.99
2017-10-07T13:33:02.716Z,99.99
2017-10-07T13:34:25.235Z,99.99
2017-10-07T13:36:35.023Z,99.99
2017-10-07T13:38:19.789Z,99.99
2017-10-07T13:40:28.703Z,99.99
2017-10-07T13:41:28.572Z,99.99
2017-10-07T13:42:51.275Z,99.99
2017-10-07T13:43:52.519Z,99.99
2017-10-07T13:48:16.228Z,99.99
2017-10-07T13:49:17.100Z,99.99
2017-10-07T13:52:32.488Z,99.99
2017-10-07T13:55:05.876Z,99.99
2017-10-07T13:56:06.548Z,99.99
2017-10-07T13:57:06.280Z,99.99
2017-10-07T13:58:06.610Z,99.99
2017-10-07T13:59:53.664Z,99.99
2017-10-07T14:00:55.392Z,99.99
2017-10-07T14:02:20.907Z,99.99
2017-10-07T14:03:22.885Z,99.99
2017-10-07T14:04:21.363Z,99.99
2017-10-07T14:05:28.552Z,99.99
2017-10-07T14:06:22.798Z,99.99
2017-10-07T14:07:45.558Z,99.99
2017-10-07T14:09:42.114Z,99.99
2017-10-07T14:11:29.605Z,99.99
2017-10-07T14:12:30.581Z,99.99
2017-10-07T14:14:16.707Z,99.99
2017-10-07T14:15:17.169Z,99.99
2017-10-07T14:16:17.701Z,99.99
2017-10-07T14:17:41.799Z,99.99
2017-10-07T14:18:42.707Z,99.99
2017-10-07T14:20:30.815Z,99.99
2017-10-07T14:21:31.635Z,99.99
2017-10-07T14:22:30.503Z,99.99
2017-10-07T14:23:55.465Z,99.99
2017-10-07T14:24:56.335Z,99.99
2017-10-07T14:26:44.755Z,99.99
2017-10-07T14:28:07.828Z,99.99
2017-10-07T14:29:08.521Z,99.99
2017-10-07T14:30:08.089Z,99.99
2017-10-07T14:31:55.210Z,99.99
2017-10-07T14:32:55.032Z,99.99
2017-10-07T14:33:55.801Z,99.99
2017-10-07T14:34:55.818Z,99.99
2017-10-07T14:35:55.556Z,99.99
2017-10-07T14:38:25.705Z,99.99
2017-10-07T14:39:26.688Z,99.99
2017-10-07T14:41:57.151Z,99.99
2017-10-07T14:42:57.759Z,99.99
2017-10-07T14:43:57.616Z,99.99
2017-10-07T14:44:57.966Z,99.99
2017-10-07T14:47:05.612Z,99.99
2017-10-07T14:48:05.360Z,99.99
2017-10-07T14:49:06.033Z,99.99
2017-10-07T14:51:15.353Z,99.99
2017-10-07T14:52:16.403Z,99.99
2017-10-07T14:54:01.717Z,99.99
2017-10-07T14:56:33.120Z,99.99
2017-10-07T14:57:34.208Z,99.99
2017-10-07T14:59:17.527Z,99.99
2017-10-07T15:00:18.118Z,99.99
2017-10-07T15:02:03.269Z,99.99
2017-10-07T15:03:25.678Z,99.99
2017-10-07T15:05:09.885Z,99.99
2017-10-07T15:06:33.171Z,99.99
2017-10-07T15:09:06.729Z,99.99
2017-10-07T15:10:09.357Z,99.99
2017-10-07T15:12:17.314Z,99.99
2017-10-07T15:13:22.322Z,99.99
2017-10-07T15:14:40.753Z,99.99
2017-10-07T15:15:41.603Z,99.99
2017-10-07T15:21:36.192Z,99.99
2017-10-07T15:22:36.275Z,99.99
2017-10-07T15:23:37.390Z,99.99
2017-10-07T15:24:58.610Z,99.99
2017-10-07T15:26:00.197Z,99.99
2017-10-07T15:26:59.122Z,99.99
2017-10-07T15:28:44.330Z,99.99
2017-10-07T15:29:45.584Z,99.99
2017-10-07T15:31:07.597Z,99.99
2017-10-07T15:32:08.359Z,99.99
2017-10-07T15:33:08.049Z,99.99
2017-10-07T15:35:15.734Z,99.99
2017-10-07T15:36:15.789Z,99.99
2017-10-07T15:37:17.770Z,99.99
2017-10-07T15:38:38.802Z,99.99
2017-10-07T15:39:39.247Z,99.99
2017-10-07T15:40:39.047Z,99.99
2017-10-07T15:42:01.787Z,99.99
2017-10-07T15:44:10.199Z,99.99
2017-10-07T15:46:20.011Z,99.99
2017-10-07T15:48:48.931Z,99.99
2017-10-07T15:49:49.710Z,99.99
2017-10-07T15:50:49.460Z,99.99
2017-10-07T15:52:15.126Z,99.99
2017-10-07T15:53:37.287Z,99.99
2017-10-07T15:55:23.323Z,99.99
2017-10-07T15:56:23.260Z,99.99
2017-10-07T16:00:46.777Z,99.99
2017-10-07T16:01:47.802Z,99.99
2017-10-07T16:02:47.796Z,99.99
2017-10-07T16:03:47.608Z,99.99
2017-10-07T16:04:47.237Z,99.99
2017-10-07T16:05:47.081Z,99.99
2017-10-07T16:07:09.380Z,99.99
2017-10-07T16:08:10.616Z,99.99
2017-10-07T16:09:10.418Z,99.99
2017-10-07T16:10:10.809Z,99.99
2017-10-07T16:11:09.520Z,99.99
2017-10-07T16:13:16.905Z,99.99
2017-10-07T16:14:16.767Z,99.99
2017-10-07T16:15:16.877Z,99.99
2017-10-07T16:16:16.609Z,99.99
2017-10-07T16:17:17.604Z,99.99
2017-10-07T16:18:17.372Z,99.99
2017-10-07T16:19:16.928Z,99.99
2017-10-07T16:20:16.864Z,99.99
2017-10-07T16:21:39.656Z,99.99
2017-10-07T16:22:39.231Z,99.99
2017-10-07T16:24:46.634Z,99.99
2017-10-07T16:25:47.455Z,99.99
2017-10-07T16:27:54.512Z,99.99
2017-10-07T16:29:39.995Z,99.99
2017-10-07T16:30:40.799Z,99.99
2017-10-07T16:31:41.324Z,99.99
2017-10-07T16:32:40.042Z,99.99
2017-10-07T16:34:25.752Z,99.99
2017-10-07T16:35:48.674Z,99.99
2017-10-07T16:36:49.491Z,99.99
2017-10-07T16:38:11.458Z,99.99
2017-10-07T16:39:57.186Z,99.99
2017-10-07T16:40:57.844Z,99.99
2017-10-07T16:41:57.518Z,99.99
2017-10-07T16:43:20.520Z,99.99
2017-10-07T16:44:21.170Z,99.99
2017-10-07T16:45:43.434Z,99.99
2017-10-07T16:46:44.239Z,99.99
2017-10-07T16:48:07.244Z,99.99